sensor_id;sensor_type;location;lat;lon;timestamp;temperature;humidity
9193;DHT22;4631;49.296;10.560;2022-12-18T00:01:53;-10.70;99.90
9193;DHT22;4631;49.296;10.560;2022-12-18T00:04:24;-10.70;99.90
9193;DHT22;4631;49.296;10.560;2022-12-18T00:06:52;-10.60;99.90
9193;DHT22;4631;49.296;10.560;2022-12-18T00:09:19;-10.70;99.90
9193;DHT22;4631;49.296;10.560;2022-12-18T00:11:46;-10.70;99.90
9193;DHT22;4631;49.296;10.560;2022-12-18T00:14:13;-10.00;99.90
9193;DHT22;4631;49.296;10.560;2022-12-18T00:16:42;-10.60;99.90
9193;DHT22;4631;49.296;10.560;2022-12-18T00:19:10;-10.70;99.90
9193;DHT22;4631;49.296;10.560;2022-12-18T00:21:38;-10.70;99.90
9193;DHT22;4631;49.296;10.560;2022-12-18T00:24:07;-10.70;99.90
9193;DHT22;4631;49.296;10.560;2022-12-18T00:26:34;-10.70;99.90
9193;DHT22;4631;49.296;10.560;2022-12-18T00:29:03;-10.70;99.90
9193;DHT22;4631;49.296;10.560;2022-12-18T00:31:30;-10.70;99.90
9193;DHT22;4631;49.296;10.560;2022-12-18T00:33:57;-10.70;99.90
9193;DHT22;4631;49.296;10.560;2022-12-18T00:36:25;-10.70;99.90
9193;DHT22;4631;49.296;10.560;2022-12-18T00:38:53;-10.70;99.90
9193;DHT22;4631;49.296;10.560;2022-12-18T00:41:21;-10.70;99.90
9193;DHT22;4631;49.296;10.560;2022-12-18T00:44:02;-10.70;99.90
9193;DHT22;4631;49.296;10.560;2022-12-18T00:46:29;-10.70;99.90
9193;DHT22;4631;49.296;10.560;2022-12-18T00:48:56;-10.40;99.90
9193;DHT22;4631;49.296;10.560;2022-12-18T00:51:23;-10.70;99.90
9193;DHT22;4631;49.296;10.560;2022-12-18T00:53:50;-10.70;99.90
9193;DHT22;4631;49.296;10.560;2022-12-18T00:56:18;-10.70;99.90
9193;DHT22;4631;49.296;10.560;2022-12-18T00:58:46;-10.80;99.90
9193;DHT22;4631;49.296;10.560;2022-12-18T01:01:13;-10.80;99.90
9193;DHT22;4631;49.296;10.560;2022-12-18T01:03:39;-10.90;99.90
9193;DHT22;4631;49.296;10.560;2022-12-18T01:06:06;-10.90;99.90
9193;DHT22;4631;49.296;10.560;2022-12-18T01:08:33;-10.90;99.90
9193;DHT22;4631;49.296;10.560;2022-12-18T01:11:00;-10.90;99.90
9193;DHT22;4631;49.296;10.560;2022-12-18T01:13:27;-11.00;99.90
9193;DHT22;4631;49.296;10.560;2022-12-18T01:15:56;-11.00;99.90
9193;DHT22;4631;49.296;10.560;2022-12-18T01:18:23;-11.00;99.90
9193;DHT22;4631;49.296;10.560;2022-12-18T01:20:50;-10.90;99.90
9193;DHT22;4631;49.296;10.560;2022-12-18T01:23:16;-10.90;99.90
9193;DHT22;4631;49.296;10.560;2022-12-18T01:25:43;-11.00;99.90
9193;DHT22;4631;49.296;10.560;2022-12-18T01:28:10;-10.90;99.90
9193;DHT22;4631;49.296;10.560;2022-12-18T01:30:37;-10.90;99.90
9193;DHT22;4631;49.296;10.560;2022-12-18T01:33:05;-10.90;99.90
9193;DHT22;4631;49.296;10.560;2022-12-18T01:35:32;-10.90;99.90
9193;DHT22;4631;49.296;10.560;2022-12-18T01:38:00;-10.80;99.90
9193;DHT22;4631;49.296;10.560;2022-12-18T01:40:27;-10.80;99.90
9193;DHT22;4631;49.296;10.560;2022-12-18T01:42:54;-10.80;99.90
9193;DHT22;4631;49.296;10.560;2022-12-18T01:45:25;-10.80;99.90
9193;DHT22;4631;49.296;10.560;2022-12-18T01:47:53;-10.80;99.90
9193;DHT22;4631;49.296;10.560;2022-12-18T01:50:23;-10.80;99.90
9193;DHT22;4631;49.296;10.560;2022-12-18T01:52:52;-10.70;99.90
9193;DHT22;4631;49.296;10.560;2022-12-18T01:55:20;-10.70;99.90
9193;DHT22;4631;49.296;10.560;2022-12-18T01:57:49;-10.60;99.90
9193;DHT22;4631;49.296;10.560;2022-12-18T02:00:19;-10.60;99.90
9193;DHT22;4631;49.296;10.560;2022-12-18T02:02:46;-10.60;99.90
9193;DHT22;4631;49.296;10.560;2022-12-18T02:05:15;-10.50;99.90
9193;DHT22;4631;49.296;10.560;2022-12-18T02:07:46;-10.40;99.90
9193;DHT22;4631;49.296;10.560;2022-12-18T02:10:18;-10.30;99.90
9193;DHT22;4631;49.296;10.560;2022-12-18T02:12:48;-10.20;99.90
9193;DHT22;4631;49.296;10.560;2022-12-18T02:15:17;-10.10;99.90
9193;DHT22;4631;49.296;10.560;2022-12-18T02:17:47;-10.00;99.90
9193;DHT22;4631;49.296;10.560;2022-12-18T02:20:18;-10.00;99.90
9193;DHT22;4631;49.296;10.560;2022-12-18T02:22:55;-9.90;99.90
9193;DHT22;4631;49.296;10.560;2022-12-18T02:25:28;-9.80;99.90
9193;DHT22;4631;49.296;10.560;2022-12-18T02:28:02;-9.80;99.90
9193;DHT22;4631;49.296;10.560;2022-12-18T02:30:31;-9.70;99.90
9193;DHT22;4631;49.296;10.560;2022-12-18T02:32:58;-9.70;99.90
9193;DHT22;4631;49.296;10.560;2022-12-18T02:35:27;-9.60;99.90
9193;DHT22;4631;49.296;10.560;2022-12-18T02:37:55;-9.60;99.90
9193;DHT22;4631;49.296;10.560;2022-12-18T02:40:22;-9.50;99.90
9193;DHT22;4631;49.296;10.560;2022-12-18T02:42:50;-9.50;99.90
9193;DHT22;4631;49.296;10.560;2022-12-18T02:45:19;-9.40;99.90
9193;DHT22;4631;49.296;10.560;2022-12-18T02:47:48;-9.40;99.90
9193;DHT22;4631;49.296;10.560;2022-12-18T02:50:18;-9.30;99.90
9193;DHT22;4631;49.296;10.560;2022-12-18T02:52:49;-9.30;99.90
9193;DHT22;4631;49.296;10.560;2022-12-18T02:55:23;-9.30;99.90
9193;DHT22;4631;49.296;10.560;2022-12-18T02:57:54;-9.30;99.90
9193;DHT22;4631;49.296;10.560;2022-12-18T03:00:24;-9.30;99.90
9193;DHT22;4631;49.296;10.560;2022-12-18T03:02:56;-9.30;99.90
9193;DHT22;4631;49.296;10.560;2022-12-18T03:05:25;-9.30;99.90
9193;DHT22;4631;49.296;10.560;2022-12-18T03:07:55;-9.30;99.90
9193;DHT22;4631;49.296;10.560;2022-12-18T03:10:24;-9.30;99.90
9193;DHT22;4631;49.296;10.560;2022-12-18T03:12:55;-9.30;99.90
9193;DHT22;4631;49.296;10.560;2022-12-18T03:15:27;-9.20;99.90
9193;DHT22;4631;49.296;10.560;2022-12-18T03:17:56;-9.20;99.90
9193;DHT22;4631;49.296;10.560;2022-12-18T03:20:24;-9.20;99.90
9193;DHT22;4631;49.296;10.560;2022-12-18T03:22:56;-9.10;99.90
9193;DHT22;4631;49.296;10.560;2022-12-18T03:25:24;-9.00;99.90
9193;DHT22;4631;49.296;10.560;2022-12-18T03:27:54;-9.00;99.90
9193;DHT22;4631;49.296;10.560;2022-12-18T03:30:23;-8.90;99.90
9193;DHT22;4631;49.296;10.560;2022-12-18T03:32:52;-8.90;99.90
9193;DHT22;4631;49.296;10.560;2022-12-18T03:35:21;-8.80;99.90
9193;DHT22;4631;49.296;10.560;2022-12-18T03:37:49;-8.80;99.90
9193;DHT22;4631;49.296;10.560;2022-12-18T03:40:17;-8.70;99.90
9193;DHT22;4631;49.296;10.560;2022-12-18T03:42:46;-8.60;99.90
9193;DHT22;4631;49.296;10.560;2022-12-18T03:45:18;-8.60;99.90
9193;DHT22;4631;49.296;10.560;2022-12-18T03:47:47;-8.50;99.90
9193;DHT22;4631;49.296;10.560;2022-12-18T03:50:17;-8.40;99.90
9193;DHT22;4631;49.296;10.560;2022-12-18T03:52:47;-8.40;99.90
9193;DHT22;4631;49.296;10.560;2022-12-18T03:55:16;-8.40;99.90
9193;DHT22;4631;49.296;10.560;2022-12-18T03:57:44;-8.40;99.90
9193;DHT22;4631;49.296;10.560;2022-12-18T04:00:13;-8.40;99.90
9193;DHT22;4631;49.296;10.560;2022-12-18T04:02:41;-8.30;99.90
9193;DHT22;4631;49.296;10.560;2022-12-18T04:05:09;-8.20;99.90
9193;DHT22;4631;49.296;10.560;2022-12-18T04:07:40;-8.20;99.90
9193;DHT22;4631;49.296;10.560;2022-12-18T04:10:08;-8.10;99.90
9193;DHT22;4631;49.296;10.560;2022-12-18T04:12:36;-8.10;99.90
9193;DHT22;4631;49.296;10.560;2022-12-18T04:15:04;-8.00;99.90
9193;DHT22;4631;49.296;10.560;2022-12-18T04:17:31;-7.90;99.90
9193;DHT22;4631;49.296;10.560;2022-12-18T04:19:57;-7.90;99.90
9193;DHT22;4631;49.296;10.560;2022-12-18T04:22:38;-7.80;99.90
9193;DHT22;4631;49.296;10.560;2022-12-18T04:25:06;-7.80;99.90
9193;DHT22;4631;49.296;10.560;2022-12-18T04:27:33;-7.80;99.90
9193;DHT22;4631;49.296;10.560;2022-12-18T04:30:00;-7.80;99.90
9193;DHT22;4631;49.296;10.560;2022-12-18T04:32:27;-7.80;99.90
9193;DHT22;4631;49.296;10.560;2022-12-18T04:34:53;-7.80;99.90
9193;DHT22;4631;49.296;10.560;2022-12-18T04:37:20;-7.70;99.90
9193;DHT22;4631;49.296;10.560;2022-12-18T04:39:47;-7.60;99.90
9193;DHT22;4631;49.296;10.560;2022-12-18T04:42:15;-7.60;99.90
9193;DHT22;4631;49.296;10.560;2022-12-18T04:44:41;-7.60;99.90
9193;DHT22;4631;49.296;10.560;2022-12-18T04:47:08;-7.60;99.90
9193;DHT22;4631;49.296;10.560;2022-12-18T04:49:34;-7.60;99.90
9193;DHT22;4631;49.296;10.560;2022-12-18T04:52:01;-7.50;99.90
9193;DHT22;4631;49.296;10.560;2022-12-18T04:54:28;-7.60;99.90
9193;DHT22;4631;49.296;10.560;2022-12-18T04:56:54;-7.50;99.90
9193;DHT22;4631;49.296;10.560;2022-12-18T04:59:22;-7.50;99.90
9193;DHT22;4631;49.296;10.560;2022-12-18T05:01:49;-7.50;99.90
9193;DHT22;4631;49.296;10.560;2022-12-18T05:04:15;-7.50;99.90
9193;DHT22;4631;49.296;10.560;2022-12-18T05:06:42;-7.50;99.90
9193;DHT22;4631;49.296;10.560;2022-12-18T05:09:09;-7.50;99.90
9193;DHT22;4631;49.296;10.560;2022-12-18T05:11:35;-7.50;99.90
9193;DHT22;4631;49.296;10.560;2022-12-18T05:14:02;-7.50;99.90
9193;DHT22;4631;49.296;10.560;2022-12-18T05:16:30;-7.50;99.90
9193;DHT22;4631;49.296;10.560;2022-12-18T05:18:57;-7.60;99.90
9193;DHT22;4631;49.296;10.560;2022-12-18T05:21:23;-7.60;99.90
9193;DHT22;4631;49.296;10.560;2022-12-18T05:23:50;-7.60;99.90
9193;DHT22;4631;49.296;10.560;2022-12-18T05:26:17;-7.60;99.90
9193;DHT22;4631;49.296;10.560;2022-12-18T05:28:44;-7.60;99.90
9193;DHT22;4631;49.296;10.560;2022-12-18T05:31:11;-7.50;99.90
9193;DHT22;4631;49.296;10.560;2022-12-18T05:33:39;-7.50;99.90
9193;DHT22;4631;49.296;10.560;2022-12-18T05:36:06;-7.50;99.90
9193;DHT22;4631;49.296;10.560;2022-12-18T05:38:34;-7.50;99.90
9193;DHT22;4631;49.296;10.560;2022-12-18T05:41:01;-7.40;99.90
9193;DHT22;4631;49.296;10.560;2022-12-18T05:43:28;-7.40;99.90
9193;DHT22;4631;49.296;10.560;2022-12-18T05:45:55;-7.40;99.90
9193;DHT22;4631;49.296;10.560;2022-12-18T05:48:22;-7.40;99.90
9193;DHT22;4631;49.296;10.560;2022-12-18T05:50:50;-7.40;99.90
9193;DHT22;4631;49.296;10.560;2022-12-18T05:53:18;-7.30;99.90
9193;DHT22;4631;49.296;10.560;2022-12-18T05:55:45;-7.30;99.90
9193;DHT22;4631;49.296;10.560;2022-12-18T05:58:12;-7.30;99.90
9193;DHT22;4631;49.296;10.560;2022-12-18T06:00:41;-7.30;99.90
9193;DHT22;4631;49.296;10.560;2022-12-18T06:03:09;-7.30;99.90
9193;DHT22;4631;49.296;10.560;2022-12-18T06:05:36;-7.30;99.90
9193;DHT22;4631;49.296;10.560;2022-12-18T06:08:05;-7.30;99.90
9193;DHT22;4631;49.296;10.560;2022-12-18T06:10:32;-7.30;99.90
9193;DHT22;4631;49.296;10.560;2022-12-18T06:12:58;-7.30;99.90
9193;DHT22;4631;49.296;10.560;2022-12-18T06:15:25;-7.30;99.90
9193;DHT22;4631;49.296;10.560;2022-12-18T06:17:52;-7.30;99.90
9193;DHT22;4631;49.296;10.560;2022-12-18T06:20:18;-7.20;99.90
9193;DHT22;4631;49.296;10.560;2022-12-18T06:22:45;-7.20;99.90
9193;DHT22;4631;49.296;10.560;2022-12-18T06:25:13;-7.20;99.90
9193;DHT22;4631;49.296;10.560;2022-12-18T06:27:46;-7.20;99.90
9193;DHT22;4631;49.296;10.560;2022-12-18T06:30:13;-7.20;99.90
9193;DHT22;4631;49.296;10.560;2022-12-18T06:32:40;-7.20;99.90
9193;DHT22;4631;49.296;10.560;2022-12-18T06:35:07;-7.20;99.90
9193;DHT22;4631;49.296;10.560;2022-12-18T06:37:33;-7.10;99.90
9193;DHT22;4631;49.296;10.560;2022-12-18T06:40:00;-7.10;99.90
9193;DHT22;4631;49.296;10.560;2022-12-18T06:42:29;-7.10;99.90
9193;DHT22;4631;49.296;10.560;2022-12-18T06:44:55;-7.10;99.90
9193;DHT22;4631;49.296;10.560;2022-12-18T06:47:22;-7.00;99.90
9193;DHT22;4631;49.296;10.560;2022-12-18T06:49:49;-7.00;99.90
9193;DHT22;4631;49.296;10.560;2022-12-18T06:52:15;-7.00;99.90
9193;DHT22;4631;49.296;10.560;2022-12-18T06:54:42;-7.00;99.90
9193;DHT22;4631;49.296;10.560;2022-12-18T06:57:09;-6.90;99.90
9193;DHT22;4631;49.296;10.560;2022-12-18T06:59:37;-6.90;99.90
9193;DHT22;4631;49.296;10.560;2022-12-18T07:02:03;-6.90;99.90
9193;DHT22;4631;49.296;10.560;2022-12-18T07:04:30;-6.90;99.90
9193;DHT22;4631;49.296;10.560;2022-12-18T07:06:57;-6.80;99.90
9193;DHT22;4631;49.296;10.560;2022-12-18T07:09:24;-6.80;99.90
9193;DHT22;4631;49.296;10.560;2022-12-18T07:11:50;-6.80;99.90
9193;DHT22;4631;49.296;10.560;2022-12-18T07:14:17;-6.80;99.90
9193;DHT22;4631;49.296;10.560;2022-12-18T07:16:46;-6.70;99.90
9193;DHT22;4631;49.296;10.560;2022-12-18T07:19:13;-6.70;99.90
9193;DHT22;4631;49.296;10.560;2022-12-18T07:21:39;-6.60;99.90
9193;DHT22;4631;49.296;10.560;2022-12-18T07:24:06;-6.60;99.90
9193;DHT22;4631;49.296;10.560;2022-12-18T07:29:18;-6.70;99.90
9193;DHT22;4631;49.296;10.560;2022-12-18T07:31:46;-6.60;99.90
9193;DHT22;4631;49.296;10.560;2022-12-18T07:34:12;-6.60;99.90
9193;DHT22;4631;49.296;10.560;2022-12-18T07:36:39;-6.50;99.90
9193;DHT22;4631;49.296;10.560;2022-12-18T07:39:06;-6.50;99.90
9193;DHT22;4631;49.296;10.560;2022-12-18T07:41:33;-6.40;99.90
9193;DHT22;4631;49.296;10.560;2022-12-18T07:44:00;-6.40;99.90
9193;DHT22;4631;49.296;10.560;2022-12-18T07:46:26;-6.40;99.90
9193;DHT22;4631;49.296;10.560;2022-12-18T07:48:54;-6.30;99.90
9193;DHT22;4631;49.296;10.560;2022-12-18T07:51:21;-6.30;99.90
9193;DHT22;4631;49.296;10.560;2022-12-18T07:53:47;-6.30;99.90
9193;DHT22;4631;49.296;10.560;2022-12-18T07:56:14;-6.30;99.90
9193;DHT22;4631;49.296;10.560;2022-12-18T07:58:41;-6.20;99.90
9193;DHT22;4631;49.296;10.560;2022-12-18T08:01:13;-6.20;99.90
9193;DHT22;4631;49.296;10.560;2022-12-18T08:03:40;-6.10;99.90
9193;DHT22;4631;49.296;10.560;2022-12-18T08:06:08;-6.10;99.90
9193;DHT22;4631;49.296;10.560;2022-12-18T08:08:35;-6.00;99.90
9193;DHT22;4631;49.296;10.560;2022-12-18T08:11:02;-6.00;99.90
9193;DHT22;4631;49.296;10.560;2022-12-18T08:13:29;-6.00;99.90
9193;DHT22;4631;49.296;10.560;2022-12-18T08:15:56;-5.90;99.90
9193;DHT22;4631;49.296;10.560;2022-12-18T08:18:23;-5.90;99.90
9193;DHT22;4631;49.296;10.560;2022-12-18T08:20:50;-5.80;99.90
9193;DHT22;4631;49.296;10.560;2022-12-18T08:23:25;-5.80;99.90
9193;DHT22;4631;49.296;10.560;2022-12-18T08:25:52;-5.80;99.90
9193;DHT22;4631;49.296;10.560;2022-12-18T08:28:18;-5.70;99.90
9193;DHT22;4631;49.296;10.560;2022-12-18T08:30:45;-5.70;99.90
9193;DHT22;4631;49.296;10.560;2022-12-18T08:33:12;-5.60;99.90
9193;DHT22;4631;49.296;10.560;2022-12-18T08:35:39;-5.60;99.90
9193;DHT22;4631;49.296;10.560;2022-12-18T08:38:05;-5.50;99.90
9193;DHT22;4631;49.296;10.560;2022-12-18T08:40:33;-5.50;99.90
9193;DHT22;4631;49.296;10.560;2022-12-18T08:43:00;-5.40;99.90
9193;DHT22;4631;49.296;10.560;2022-12-18T08:45:44;-5.40;99.90
9193;DHT22;4631;49.296;10.560;2022-12-18T08:48:11;-5.40;99.90
9193;DHT22;4631;49.296;10.560;2022-12-18T08:50:38;-5.30;99.90
9193;DHT22;4631;49.296;10.560;2022-12-18T08:53:04;-5.30;99.90
9193;DHT22;4631;49.296;10.560;2022-12-18T08:55:31;-5.20;99.90
9193;DHT22;4631;49.296;10.560;2022-12-18T08:57:59;-5.20;99.90
9193;DHT22;4631;49.296;10.560;2022-12-18T09:00:26;-5.20;99.90
9193;DHT22;4631;49.296;10.560;2022-12-18T09:02:52;-5.10;99.90
9193;DHT22;4631;49.296;10.560;2022-12-18T09:05:19;-5.00;99.90
9193;DHT22;4631;49.296;10.560;2022-12-18T09:07:46;-4.90;99.90
9193;DHT22;4631;49.296;10.560;2022-12-18T09:10:12;-4.90;99.90
9193;DHT22;4631;49.296;10.560;2022-12-18T09:12:53;-4.90;99.90
9193;DHT22;4631;49.296;10.560;2022-12-18T09:15:22;-4.90;99.90
9193;DHT22;4631;49.296;10.560;2022-12-18T09:17:49;-4.80;99.90
9193;DHT22;4631;49.296;10.560;2022-12-18T09:20:18;-4.80;99.90
9193;DHT22;4631;49.296;10.560;2022-12-18T09:22:44;-4.70;99.90
9193;DHT22;4631;49.296;10.560;2022-12-18T09:25:11;-4.70;99.90
9193;DHT22;4631;49.296;10.560;2022-12-18T09:27:38;-4.70;99.90
9193;DHT22;4631;49.296;10.560;2022-12-18T09:30:05;-4.70;99.90
9193;DHT22;4631;49.296;10.560;2022-12-18T09:32:33;-4.60;99.90
9193;DHT22;4631;49.296;10.560;2022-12-18T09:35:00;-4.60;99.90
9193;DHT22;4631;49.296;10.560;2022-12-18T09:37:26;-4.60;99.90
9193;DHT22;4631;49.296;10.560;2022-12-18T09:39:53;-4.50;99.90
9193;DHT22;4631;49.296;10.560;2022-12-18T09:42:20;-4.50;99.90
9193;DHT22;4631;49.296;10.560;2022-12-18T09:44:48;-4.50;99.90
9193;DHT22;4631;49.296;10.560;2022-12-18T09:47:17;-4.40;99.90
9193;DHT22;4631;49.296;10.560;2022-12-18T09:49:47;-4.40;99.90
9193;DHT22;4631;49.296;10.560;2022-12-18T09:52:16;-4.40;99.90
9193;DHT22;4631;49.296;10.560;2022-12-18T09:54:45;-4.30;99.90
9193;DHT22;4631;49.296;10.560;2022-12-18T09:57:13;-4.30;99.90
9193;DHT22;4631;49.296;10.560;2022-12-18T09:59:40;-4.20;99.90
9193;DHT22;4631;49.296;10.560;2022-12-18T10:02:15;-4.20;99.90
9193;DHT22;4631;49.296;10.560;2022-12-18T10:04:42;-4.20;99.90
9193;DHT22;4631;49.296;10.560;2022-12-18T10:07:14;-4.10;99.90
9193;DHT22;4631;49.296;10.560;2022-12-18T10:09:42;-4.10;99.90
9193;DHT22;4631;49.296;10.560;2022-12-18T10:12:13;-4.00;99.90
9193;DHT22;4631;49.296;10.560;2022-12-18T10:14:45;-4.00;99.90
9193;DHT22;4631;49.296;10.560;2022-12-18T10:17:17;-4.00;99.90
9193;DHT22;4631;49.296;10.560;2022-12-18T10:19:48;-3.90;99.90
9193;DHT22;4631;49.296;10.560;2022-12-18T10:22:21;-3.90;99.90
9193;DHT22;4631;49.296;10.560;2022-12-18T10:24:50;-3.80;99.90
9193;DHT22;4631;49.296;10.560;2022-12-18T10:27:21;-3.80;99.90
9193;DHT22;4631;49.296;10.560;2022-12-18T10:29:48;-3.60;99.90
9193;DHT22;4631;49.296;10.560;2022-12-18T10:32:16;-3.60;99.90
9193;DHT22;4631;49.296;10.560;2022-12-18T10:34:47;-3.60;99.90
9193;DHT22;4631;49.296;10.560;2022-12-18T10:37:15;-3.60;99.90
9193;DHT22;4631;49.296;10.560;2022-12-18T10:39:45;-3.50;99.90
9193;DHT22;4631;49.296;10.560;2022-12-18T10:42:16;-3.40;99.90
9193;DHT22;4631;49.296;10.560;2022-12-18T10:44:43;-3.50;99.90
9193;DHT22;4631;49.296;10.560;2022-12-18T10:47:11;-3.50;99.90
9193;DHT22;4631;49.296;10.560;2022-12-18T10:49:39;-3.50;99.90
9193;DHT22;4631;49.296;10.560;2022-12-18T10:52:11;-3.50;99.90
9193;DHT22;4631;49.296;10.560;2022-12-18T10:54:45;-3.50;99.90
9193;DHT22;4631;49.296;10.560;2022-12-18T10:57:20;-3.50;99.90
9193;DHT22;4631;49.296;10.560;2022-12-18T10:59:56;-3.40;99.90
9193;DHT22;4631;49.296;10.560;2022-12-18T11:02:26;-3.40;99.90
9193;DHT22;4631;49.296;10.560;2022-12-18T11:04:53;-3.30;99.90
9193;DHT22;4631;49.296;10.560;2022-12-18T11:07:20;-3.10;99.90
9193;DHT22;4631;49.296;10.560;2022-12-18T11:09:59;-3.00;99.90
9193;DHT22;4631;49.296;10.560;2022-12-18T11:12:27;-2.70;99.90
9193;DHT22;4631;49.296;10.560;2022-12-18T11:14:55;-2.60;99.90
9193;DHT22;4631;49.296;10.560;2022-12-18T11:17:25;-2.60;99.90
9193;DHT22;4631;49.296;10.560;2022-12-18T11:19:53;-2.50;99.90
9193;DHT22;4631;49.296;10.560;2022-12-18T11:22:21;-2.60;99.90
9193;DHT22;4631;49.296;10.560;2022-12-18T11:24:53;-2.60;99.90
9193;DHT22;4631;49.296;10.560;2022-12-18T11:27:21;-2.60;99.90
9193;DHT22;4631;49.296;10.560;2022-12-18T11:29:52;-2.70;99.90
9193;DHT22;4631;49.296;10.560;2022-12-18T11:32:30;-2.70;99.90
9193;DHT22;4631;49.296;10.560;2022-12-18T11:35:01;-2.60;99.90
9193;DHT22;4631;49.296;10.560;2022-12-18T11:37:28;-2.50;99.90
9193;DHT22;4631;49.296;10.560;2022-12-18T11:39:56;-2.30;99.90
9193;DHT22;4631;49.296;10.560;2022-12-18T11:42:27;-2.40;99.90
9193;DHT22;4631;49.296;10.560;2022-12-18T11:44:57;-2.40;99.90
9193;DHT22;4631;49.296;10.560;2022-12-18T11:47:27;-2.40;99.90
9193;DHT22;4631;49.296;10.560;2022-12-18T11:49:55;-2.50;99.90
9193;DHT22;4631;49.296;10.560;2022-12-18T11:52:26;-2.60;99.90
9193;DHT22;4631;49.296;10.560;2022-12-18T11:54:54;-2.70;99.90
9193;DHT22;4631;49.296;10.560;2022-12-18T11:57:25;-2.70;99.90
9193;DHT22;4631;49.296;10.560;2022-12-18T11:59:59;-2.60;99.90
9193;DHT22;4631;49.296;10.560;2022-12-18T12:02:32;-2.60;99.90
9193;DHT22;4631;49.296;10.560;2022-12-18T12:05:15;-2.60;99.90
9193;DHT22;4631;49.296;10.560;2022-12-18T12:07:46;-2.70;99.90
9193;DHT22;4631;49.296;10.560;2022-12-18T12:10:18;-2.70;99.90
9193;DHT22;4631;49.296;10.560;2022-12-18T12:12:54;-2.70;99.90
9193;DHT22;4631;49.296;10.560;2022-12-18T12:15:28;-2.60;99.90
9193;DHT22;4631;49.296;10.560;2022-12-18T12:17:58;-2.50;99.90
9193;DHT22;4631;49.296;10.560;2022-12-18T12:20:27;-2.40;99.90
9193;DHT22;4631;49.296;10.560;2022-12-18T12:22:58;-2.30;99.90
9193;DHT22;4631;49.296;10.560;2022-12-18T12:25:29;-2.10;99.90
9193;DHT22;4631;49.296;10.560;2022-12-18T12:28:01;-2.10;99.90
9193;DHT22;4631;49.296;10.560;2022-12-18T12:30:35;-2.10;99.90
9193;DHT22;4631;49.296;10.560;2022-12-18T12:33:09;-2.10;99.90
9193;DHT22;4631;49.296;10.560;2022-12-18T12:35:42;-2.10;99.90
9193;DHT22;4631;49.296;10.560;2022-12-18T12:38:11;-2.10;99.90
9193;DHT22;4631;49.296;10.560;2022-12-18T12:40:41;-2.10;99.90
9193;DHT22;4631;49.296;10.560;2022-12-18T12:43:21;-2.10;99.90
9193;DHT22;4631;49.296;10.560;2022-12-18T12:45:50;-2.00;99.90
9193;DHT22;4631;49.296;10.560;2022-12-18T12:48:21;-1.90;99.90
9193;DHT22;4631;49.296;10.560;2022-12-18T12:50:57;-1.80;99.90
9193;DHT22;4631;49.296;10.560;2022-12-18T12:53:26;-1.70;99.90
9193;DHT22;4631;49.296;10.560;2022-12-18T12:55:55;-1.70;99.90
9193;DHT22;4631;49.296;10.560;2022-12-18T12:58:25;-1.80;99.90
9193;DHT22;4631;49.296;10.560;2022-12-18T13:00:55;-1.90;99.90
9193;DHT22;4631;49.296;10.560;2022-12-18T13:03:27;-2.00;99.90
9193;DHT22;4631;49.296;10.560;2022-12-18T13:05:58;-2.00;99.90
9193;DHT22;4631;49.296;10.560;2022-12-18T13:08:27;-2.00;99.90
9193;DHT22;4631;49.296;10.560;2022-12-18T13:10:55;-2.10;99.90
9193;DHT22;4631;49.296;10.560;2022-12-18T13:13:49;-2.20;99.90
9193;DHT22;4631;49.296;10.560;2022-12-18T13:16:19;-2.30;99.90
9193;DHT22;4631;49.296;10.560;2022-12-18T13:18:49;-2.30;99.90
9193;DHT22;4631;49.296;10.560;2022-12-18T13:21:19;-2.40;99.90
9193;DHT22;4631;49.296;10.560;2022-12-18T13:23:47;-2.40;99.90
9193;DHT22;4631;49.296;10.560;2022-12-18T13:29:04;-2.50;99.90
9193;DHT22;4631;49.296;10.560;2022-12-18T13:34:18;-2.50;99.90
9193;DHT22;4631;49.296;10.560;2022-12-18T13:36:45;-2.50;99.90
9193;DHT22;4631;49.296;10.560;2022-12-18T13:39:22;-2.50;99.90
9193;DHT22;4631;49.296;10.560;2022-12-18T13:41:50;-2.50;99.90
9193;DHT22;4631;49.296;10.560;2022-12-18T13:44:24;-2.60;99.90
9193;DHT22;4631;49.296;10.560;2022-12-18T13:46:51;-2.50;99.90
9193;DHT22;4631;49.296;10.560;2022-12-18T13:49:22;-2.60;99.90
9193;DHT22;4631;49.296;10.560;2022-12-18T13:51:49;-2.60;99.90
9193;DHT22;4631;49.296;10.560;2022-12-18T13:54:18;-2.60;99.90
9193;DHT22;4631;49.296;10.560;2022-12-18T13:56:52;-2.60;99.90
9193;DHT22;4631;49.296;10.560;2022-12-18T13:59:19;-2.60;99.90
9193;DHT22;4631;49.296;10.560;2022-12-18T14:01:48;-2.60;99.90
9193;DHT22;4631;49.296;10.560;2022-12-18T14:04:19;-2.70;99.90
9193;DHT22;4631;49.296;10.560;2022-12-18T14:06:48;-2.70;99.90
9193;DHT22;4631;49.296;10.560;2022-12-18T14:09:15;-2.80;99.90
9193;DHT22;4631;49.296;10.560;2022-12-18T14:11:46;-2.80;99.90
9193;DHT22;4631;49.296;10.560;2022-12-18T14:14:13;-2.90;99.90
9193;DHT22;4631;49.296;10.560;2022-12-18T14:16:40;-2.90;99.90
9193;DHT22;4631;49.296;10.560;2022-12-18T14:19:10;-2.90;99.90
9193;DHT22;4631;49.296;10.560;2022-12-18T14:21:38;-2.90;99.90
9193;DHT22;4631;49.296;10.560;2022-12-18T14:24:12;-3.00;99.90
9193;DHT22;4631;49.296;10.560;2022-12-18T14:26:39;-3.10;99.90
9193;DHT22;4631;49.296;10.560;2022-12-18T14:29:20;-3.10;99.90
9193;DHT22;4631;49.296;10.560;2022-12-18T14:34:29;-3.10;99.90
9193;DHT22;4631;49.296;10.560;2022-12-18T14:36:55;-3.20;99.90
9193;DHT22;4631;49.296;10.560;2022-12-18T14:39:23;-3.20;99.90
9193;DHT22;4631;49.296;10.560;2022-12-18T14:41:50;-3.30;99.90
9193;DHT22;4631;49.296;10.560;2022-12-18T14:44:17;-3.30;99.90
9193;DHT22;4631;49.296;10.560;2022-12-18T14:46:44;-3.30;99.90
9193;DHT22;4631;49.296;10.560;2022-12-18T14:49:17;-3.30;99.90
9193;DHT22;4631;49.296;10.560;2022-12-18T14:51:47;-3.30;99.90
9193;DHT22;4631;49.296;10.560;2022-12-18T14:54:15;-3.30;99.90
9193;DHT22;4631;49.296;10.560;2022-12-18T14:56:44;-3.40;99.90
9193;DHT22;4631;49.296;10.560;2022-12-18T14:59:12;-3.40;99.90
9193;DHT22;4631;49.296;10.560;2022-12-18T15:01:44;-3.40;99.90
9193;DHT22;4631;49.296;10.560;2022-12-18T15:04:22;-3.50;99.90
9193;DHT22;4631;49.296;10.560;2022-12-18T15:06:50;-3.50;99.90
9193;DHT22;4631;49.296;10.560;2022-12-18T15:09:28;-3.50;99.90
9193;DHT22;4631;49.296;10.560;2022-12-18T15:11:57;-3.50;99.90
9193;DHT22;4631;49.296;10.560;2022-12-18T15:14:29;-3.50;99.90
9193;DHT22;4631;49.296;10.560;2022-12-18T15:16:56;-3.50;99.90
9193;DHT22;4631;49.296;10.560;2022-12-18T15:19:26;-3.50;99.90
9193;DHT22;4631;49.296;10.560;2022-12-18T15:21:57;-3.60;99.90
9193;DHT22;4631;49.296;10.560;2022-12-18T15:24:24;-3.60;99.90
9193;DHT22;4631;49.296;10.560;2022-12-18T15:26:52;-3.70;99.90
9193;DHT22;4631;49.296;10.560;2022-12-18T15:29:29;-3.70;99.90
9193;DHT22;4631;49.296;10.560;2022-12-18T15:32:00;-3.60;99.90
9193;DHT22;4631;49.296;10.560;2022-12-18T15:34:27;-3.70;99.90
9193;DHT22;4631;49.296;10.560;2022-12-18T15:36:54;-3.70;99.90
9193;DHT22;4631;49.296;10.560;2022-12-18T15:39:20;-3.70;99.90
9193;DHT22;4631;49.296;10.560;2022-12-18T15:41:47;-3.70;99.90
9193;DHT22;4631;49.296;10.560;2022-12-18T15:44:33;-3.70;99.90
9193;DHT22;4631;49.296;10.560;2022-12-18T15:46:59;-3.70;99.90
9193;DHT22;4631;49.296;10.560;2022-12-18T15:49:26;-3.80;99.90
9193;DHT22;4631;49.296;10.560;2022-12-18T15:51:53;-3.80;99.90
9193;DHT22;4631;49.296;10.560;2022-12-18T15:54:20;-3.80;99.90
9193;DHT22;4631;49.296;10.560;2022-12-18T15:57:08;-3.80;99.90
9193;DHT22;4631;49.296;10.560;2022-12-18T15:59:51;-3.80;99.90
9193;DHT22;4631;49.296;10.560;2022-12-18T16:02:19;-3.90;99.90
9193;DHT22;4631;49.296;10.560;2022-12-18T16:04:48;-3.90;99.90
9193;DHT22;4631;49.296;10.560;2022-12-18T16:07:14;-3.90;99.90